2017 Race Has Been Cancelled



Red Line 325 - 325 final, Jacksonville

Station: JACKSONVILLE - A Race

Distance: 325 Miles

Release: 28-Mar-2017 07:15

Weather Release: clear/calm    Arrival: warm, cloudy

Wind at Release: light/ variable     Wind at Arrival: 5/8mi. s/w

Temp at Release: 65°    Temp at Arrival: 81°

Lofts: 40

Birds: 107

Clocked: 86

Good Luck to Everyone!
Drops Pos Breeder Pigeon Name Color Sex Ent Arrival Speed To Win Eligible AvgTeam
5000 1 Bieche Lofts 6478-AU16-BCH Somebody Stop Me BC C 1 15:13:49.00 1194.612 00:00:00 Yes
4000 2 Red Ass Ranch 0127-AU16-RAR My Alibi BB H 1 15:16:07.00 1188.901 00:02:18 Yes
3000 3 Daehn/Miele 0037-AU16-NWFI Fortune Hunter BBWF H 1 15:18:50.00 1182.225 00:05:01 Yes
2000 4 Nesler Boyz 0698-AU16-TCH Main Squeeze BC H 1 15:18:52.00 1182.144 00:05:03 Yes
1000 5 Daehn/Miele 0043-AU16-NWFI BLUE ELECTRA BB H 2 15:46:09.00 1119.045 00:32:20 Yes
1000 6 Hollywood Lou Loft 1055-AU16-AKY Blue Water BLUE H 1 16:04:50.00 1079.585 00:51:01 Yes
1000 7 Carini & Medeiros Loft 1656-AU16-CRNI LUCKY STRIKE BB H 1 16:05:05.00 1079.076 00:51:15 Yes
1000 8 Tar Syndicate 6841-IF16-TAR Kathy AT BBWF H 1 16:13:31.00 1062.177 00:59:42 Yes
1000 9 Nesler Boyz 0693-AU16-TCH Under the Radar GR H 2 16:17:38.00 1054.119 01:03:49 Yes
1000 10 Acre Farms 0292-AU16-GENE PLATINUM BC H 1 16:17:47.00 1053.827 01:03:58 Yes
500 11 Wessel Family Lofts 0973-AU16-ARC End Around BB C 1 16:17:51.00 1053.698 01:04:02 Yes
500 12 Turk Brand Syndicate 0094-AU16-NPL Born Legacy BB H 1 16:20:43.00 1048.163 01:06:54 Yes
500 13 Nesler Boyz 0673-AU16-TCH Slam Dunk BL H 3 16:29:43.00 1031.157 01:15:54 Yes
500 14 Hosanna Lofts 52902-AU16-ARPU Blue Diamond BB C 1 16:43:18.00 1006.511 01:29:28 Yes
500 15 Bluestreak 0614-AU16-TCH Breaker BL C 1 16:48:50.00 996.805 01:35:01 Yes
500 16 Daehn/Miele 0047-AU16-NWFI New World BB C 3 17:13:27.00 955.802 01:59:38 Yes
500 17 Lewis & King 85217-AU16-ARPU Heat Seeker BC H 1 17:26:38.00 935.201 02:12:49 Yes
500 18 Hollywood Lou Loft 77513-AU16-ARPU MARCIANNA BC H 2 17:36:22.00 920.551 02:22:33 N/E
500 19 Marengo Creek Farms 2421-AU16-MCF It could Happen to You BB H 1 17:48:09.00 903.419 02:34:20 Yes
500 20 Johnny's Automotive 23599-AU16-JEDD INGES CLONE BB H 1 17:48:13.00 903.324 02:34:24 Yes
250 21 John Partridge 0043-AU16-PASO Dark Intentions CWF H 1 17:59:49.00 887.074 02:46:00 Yes
250 22 Nesler Boyz 0672-AU16-TCH Ultimate Diva BL H 4 18:02:40.00 883.170 02:48:51 Yes
250 23 Wareagle Loft 0257-AU16-WEL Drama Queen BB H 1 18:11:20.00 871.508 02:57:31 Yes
250 24 Daehn/Miele 0038-AU16-NWFI Shag me Baby BBWF C 4 18:14:57.00 866.732 03:01:08 Yes
250 25 Carini & Medeiros Loft 1669-AU16-CRNI JOE'' ML C 2 18:19:20.00 861.014 03:05:30 Yes
250 26 Marengo Creek Farms 2417-AU16-MCF Blue Diva BB H 2 18:37:48.00 837.727 03:23:59 Yes
250 27 Carini & Medeiros Loft 1672-AU16-CRNI No Reservation SLAT H 3 18:41:39.00 833.030 03:27:50 Yes
250 28 Bluestreak 1053-AU16-AKY Thriller BL C 2 18:43:28.00 830.832 03:29:38 Yes
250 29 Canto/Wiltz Syndicate 0040-AU16-CNTO Brick House CHO H 1 18:53:40.00 818.702 03:39:51 Yes
250 30 Canto/Wiltz Syndicate 25633-AU16-AA WITNESS CH H 2 18:56:17.00 815.648 03:42:27 Yes
250 31 111 Loft 0549-AU16-GUO Blue Jasmine BB H 1 19:27:47.00 780.585 04:13:58 Yes
250 32 Johnny's Automotive 20704-AU16-JEDD ARIANI BB H 2 07:05:00.00 713.217 05:23:11 Yes
250 33 Marengo Creek Farms 2413-AU16-MCF DANGEROUS SMOK C 3 2017-03-29 08:22:57.00 650.776 06:40:08 Yes
34 1-Tonyloft 4310-AU16-TONY Esmeralda BB H 1 2017-03-29 09:08:46.00 618.534 07:25:57 Yes
35 John Partridge 0053-AU16-PASO Sure Thing BBWF C 2 2017-03-29 09:10:19.00 617.499 07:27:30 Yes
36 Wessel Family Lofts 1073-AU16-AKY Ricky Allen BB C 2 2017-03-29 09:13:29.00 615.396 07:30:39 Yes
37 Wessel Family Lofts 0977-AU16-ARC Nuance BB C 3 2017-03-29 09:25:26.00 607.584 07:42:37 Yes
38 Acre Farms 0270-AU16-GENE ORIGINATOR BC C 2 2017-03-29 10:19:33.00 574.557 08:36:43 Yes
39 Daehn/Miele 0048-AU16-NWFI Andromeda BBWF C 5 2017-03-29 10:36:20.00 565.031 08:53:31 Yes
40 Daehn/Miele 0039-AU16-NWFI In the Bank BB C 6 2017-03-29 10:38:18.00 563.936 08:55:28 Yes
41 Hollywood Lou Loft 77573-AU16-ARPU Hulk Hogan Again BB C 3 2017-03-29 10:48:35.00 558.276 09:05:45 Yes
42 Racing Pigeon Mall 0625-AU16-RPM Rachel's Bold As Black BLK H 1 2017-03-29 10:48:48.00 558.158 09:05:58 Yes
43 John Partridge 0042-AU16-PASO KLACKER'' BC C 3 2017-03-29 10:55:32.00 554.514 09:12:43 Yes
44 Walstons Warriors 6353-AU16-GL Wind Talker SMBB C 1 2017-03-29 11:06:22.00 548.751 09:23:33 Yes
45 Rachel Olivieri 1816-AU16-JEDD ITS UNANIMOUS BB H 1 2017-03-29 11:07:43.00 548.041 09:24:54 Yes
46 Sienna Loft 0073-IF16-TRC California Girl BB H 1 2017-03-29 11:29:44.00 536.720 09:46:54 N/E
47 111 Loft 0542-AU16-GUO Imperial Lady RP H 2 2017-03-29 11:39:00.00 532.093 09:56:11 Yes
48 Rachel Olivieri 1815-AU16-JEDD UKIAH BC C 2 2017-03-29 11:39:01.00 532.085 09:56:11 Yes
49 Freds Loft 0929-AU16-FRED Southern Pride GR H 1 2017-03-29 11:39:02.00 532.077 09:56:12 Yes
50 Marengo Creek Farms 2419-AU16-MCF Heart Throb BBWF H 4 2017-03-29 12:01:54.00 520.995 10:19:04 Inj
51 John Partridge 0081-AU16-PASO Born Supreme BC C 4 2017-03-29 12:03:56.00 520.032 10:21:06 Yes
52 Lewis & King 85214-AU16-ARPU Blue Collar BC C 2 2017-03-29 12:03:57.00 520.024 10:21:07 Yes
53 Hollywood Lou Loft 77528-AU16-ARPU Mr. Euro BC C 4 2017-03-29 12:05:48.00 519.150 10:22:59 N/E
54 Racing Pigeon Mall 0626-AU16-RPM Black Ops 2 BLK C 2 2017-03-29 12:06:12.00 518.962 10:23:23 Yes
55 Daehn/Miele 0036-AU16-NWFI Private Ryan BB C 7 2017-03-29 12:12:05.00 516.207 10:29:15 Yes
56 Bluestreak 1079-AU16-AKY Napili BWF H 3 2017-03-29 12:27:27.00 509.146 10:44:37 Yes
57 Nesneb Racing Loft 16121-AU16-MOBL Miss Cadillac BC H 1 2017-03-29 12:27:28.00 509.138 10:44:39 Yes
58 Jack's Loft 3211-AU16-FOYS CHANGE THE GAME GR C 1 2017-03-29 12:33:24.00 506.464 10:50:34 Yes
59 Schoors & Sons 0052-AU16-SCHR Valley Girl BB H 1 2017-03-29 12:44:33.00 501.512 11:01:44 Yes
60 Daehn/Miele 0050-AU16-NWFI Miss Perfection BB H 8 2017-03-29 12:50:19.00 498.990 11:07:29 Yes
61 Acre Farms 0269-AU16-GENE IN A FLASH BCWP C 3 2017-03-29 12:50:32.00 498.895 11:07:43 Yes
62 Walstons Warriors 6361-AU16-GL RED EAGLE SIL C 2 2017-03-29 12:53:28.00 497.622 11:10:39 Yes
63 Hollywood Lou Loft 77572-AU16-ARPU PERFECT CHOICE BC H 5 2017-03-29 13:03:45.00 493.210 11:20:55 Yes
64 Sienna Loft 0202-IF16-TRC Pretty Woman BCP H 2 2017-03-29 13:17:47.00 487.313 11:34:58 Yes
65 Nesneb Racing Loft 16120-AU16-MOBL Another Harry BB C 2 2017-03-29 13:23:43.00 484.862 11:40:54 Yes
66 Freds Loft 0942-AU16-FRED The Blaze WHIT H 2 2017-03-29 13:50:40.00 474.033 12:07:51 Yes
67 Sienna Loft 0234-IF16-TRC Top Dog BB C 3 2017-03-29 14:00:57.00 470.028 12:18:07 N/E
68 Nesler Boyz 0696-AU16-TCH Color Code BC H 5 2017-03-29 14:07:05.00 467.671 12:24:15 Yes
69 Carini & Medeiros Loft 1657-AU16-CRNI TWOS a crowd BC H 4 2017-03-29 14:27:49.00 459.875 12:44:59 Yes
70 Bluestreak 1056-AU16-AKY Insiders Choice BL H 4 2017-03-29 14:34:32.00 457.405 12:51:42 Yes
71 Hi-Cal Connection 0765-AU16-HICL SPICE GIRL BC H 1 2017-03-29 14:34:35.00 457.387 12:51:45 Yes
72 Drama Queen Loft 0272-AU16-GCI Say It Aint So BB H 1 2017-03-29 15:00:05.00 448.247 13:17:15 Yes
73 Freds Loft 0924-AU16-FRED Another Hollywood BB C 3 2017-03-29 15:34:00.00 436.641 13:51:11 Yes
74 Acre Farms 0263-AU16-GENE KARMA JO BC H 4 2017-03-29 15:38:59.00 434.987 13:56:09 Yes
75 Wareagle Loft 0244-AU16-WEL West Wing BB C 2 2017-03-29 16:01:06.00 427.791 14:18:17 Yes
76 Jack's Loft 1051-AU16-AKY Major Concern BB H 2 2017-03-29 16:04:09.00 426.818 14:21:19 Yes
77 Dave Dudley 16076-AU16-PBLO ARIANNA BB H 1 2017-03-29 16:04:34.00 426.685 14:21:45 Yes
78 Hollywood Lou Loft 77567-AU16-ARPU WIND JAMMER BB C 6 2017-03-29 16:23:08.00 420.856 14:40:19 N/E
79 Sexton's Loft 8184-AU16-AU Americana SIL C 1 2017-03-29 16:29:43.00 418.828 14:46:53 N/E
80 Nesneb Racing Loft 16106-AU16-MOBL American Standard BWFP C 3 2017-03-29 17:54:00.00 394.483 16:11:10 Yes
81 Hosanna Lofts 52912-AU16-ARPU Honey Blue BB H 2 2017-03-29 18:56:58.00 378.065 17:14:09 Yes
82 Turk Brand Syndicate 1417-AU16-ER Crown Royale BWFP H 2 2017-03-30 10:16:51.00 316.924 22:06:01 Yes
83 Acre Farms 0274-AU16-GENE WINTERHAVEN BC C 5 2017-03-30 10:49:33.00 311.284 22:38:44 Yes
84 Red Ass Ranch 0113-AU16-RAR EXACTA BBWF C 2 2017-03-30 10:50:10.00 311.180 22:39:20 N/E
85 Sienna Loft 0339-IF16-SRPC Rocky BV C 4 2017-03-30 12:51:17.00 291.943 24:40:28 N/E
86 Sienna Loft 0201-IF16-TRC My Aunt Tilly BB H 5 2017-03-30 14:55:33.00 274.531 26:44:44 N/E
Canto/Wiltz Syndicate 0045-AU16-CNTO MR. PRIORITY CWF C 00:00:00.00 0.000 Yes
Rick Derrow 12435-AU16-FOYS Imagine That BBWF C 00:00:00.00 0.000 N/E
Hollywood Lou Loft 77543-AU16-ARPU Chicago Blue BB C 00:00:00.00 0.000 N/E
Rick Derrow 12432-AU16-FOYS The Mountaineer BB H 00:00:00.00 0.000 N/E
Marengo Creek Farms 2433-AU16-MCF The Chosen One BC C 00:00:00.00 0.000 Yes
Who Dat Loft 1058-AU16-AKY Assigned to Win BL H 00:00:00.00 0.000 Yes
Hi-Cal Connection 0786-AU16-HICL STOP ME NOW BBWF C 00:00:00.00 0.000 Yes
111 Loft 0550-AU16-GUO Ghinghis Khan BB C 00:00:00.00 0.000 Yes
Racing Pigeon Mall 0622-AU16-RPM The Big Easy VELV C 00:00:00.00 0.000 Yes
Daehn/Miele 0049-AU16-NWFI Media Blitz BB C 00:00:00.00 0.000 Yes
A & S Loft 16058-AU16-PBLO Constant Reminder BCWP C 00:00:00.00 0.000 Yes
Bieche Lofts 6367-AU16-BCH Euro Girl BB H 00:00:00.00 0.000 Yes
Wareagle Loft 0253-AU16-WEL Rain Man SMOK C 00:00:00.00 0.000 Yes
Rachel Olivieri 1819-AU16-JEDD TOTAL ASSET BBPD C 00:00:00.00 0.000 Yes

There are 126 bird records

Note: These Race Results are unofficial and subject to change until verified by the Race Committee and declared final.